West Liberty, West Virginia
Current Conditions -  °F | °C
As of 4:53 AM on Thursday 23 Oct 2014 (Local Time) from KHLG Reporting Station
Overcast Overcast  
Wind Chill: 41°   Ceiling: 4100
Heat Index: 45°   Visibility: 10mi
Dew Point: 41°   Wind: 8mph
Humidity: 86%   Direction: 310°NW
Pressure: 30.14"   Gusts: NA
Location:  40.17°N, 80.59°W
Report Text: KHLG 230853Z AUTO 31007KT 10SM OVC041 07/05 A3014 RMK AO2 SLP213 T00720050 58003
Loading
Personal Weather Stations






























Interactive Weather Map
Tropical Storm Tracking
New forecast layout! Learn more

10-Day Weather Forecast

Advertisements
Track Severe Weather on mobile